createdAt,value
2022-11-22T00:00:43.134Z,8.38
2022-11-22T00:03:10.464Z,8.93
2022-11-22T00:05:37.858Z,8.40
2022-11-22T00:08:05.502Z,12.30
2022-11-22T00:10:33.202Z,10.07
2022-11-22T00:13:01.128Z,6.85
2022-11-22T00:15:29.091Z,6.88
2022-11-22T00:17:56.399Z,5.78
2022-11-22T00:20:23.787Z,6.57
2022-11-22T00:22:50.973Z,7.25
2022-11-22T00:25:18.266Z,6.45
2022-11-22T00:27:45.487Z,7.60
2022-11-22T00:30:12.648Z,7.60
2022-11-22T00:32:39.795Z,7.88
2022-11-22T00:35:07.669Z,8.25
2022-11-22T00:37:34.839Z,7.07
2022-11-22T00:40:02.047Z,6.45
2022-11-22T00:42:29.156Z,6.47
2022-11-22T00:44:56.281Z,6.80
2022-11-22T00:47:23.608Z,6.32
2022-11-22T00:49:50.692Z,7.25
2022-11-22T00:52:17.769Z,7.93
2022-11-22T00:54:48.759Z,7.63
2022-11-22T00:57:18.773Z,10.45
2022-11-22T00:59:46.000Z,9.93
2022-11-22T01:02:13.084Z,9.93
2022-11-22T01:04:40.260Z,11.07
2022-11-22T01:07:07.482Z,9.63
2022-11-22T01:09:34.707Z,9.80
2022-11-22T01:12:01.870Z,9.10
2022-11-22T01:14:29.119Z,9.45
2022-11-22T01:16:56.292Z,9.73
2022-11-22T01:19:23.423Z,9.77
2022-11-22T01:21:50.596Z,9.10
2022-11-22T01:24:17.834Z,10.10
2022-11-22T01:26:44.967Z,8.90
2022-11-22T01:29:12.094Z,7.80
2022-11-22T01:31:39.335Z,5.68
2022-11-22T01:34:06.447Z,7.25
2022-11-22T01:36:33.657Z,8.25
2022-11-22T01:39:00.772Z,8.38
2022-11-22T01:41:27.990Z,7.15
2022-11-22T01:43:55.152Z,7.50
2022-11-22T01:46:34.268Z,6.65
2022-11-22T01:49:31.528Z,6.30
2022-11-22T01:52:17.827Z,7.15
2022-11-22T01:54:53.540Z,7.70
2022-11-22T01:57:28.371Z,7.50
2022-11-22T02:00:09.087Z,7.22
2022-11-22T02:02:58.023Z,6.50
2022-11-22T02:05:30.768Z,6.28
2022-11-22T02:08:36.123Z,6.57
2022-11-22T02:11:04.263Z,5.47
2022-11-22T02:13:36.910Z,7.00
2022-11-22T02:16:05.044Z,6.32
2022-11-22T02:18:35.784Z,5.68
2022-11-22T02:21:04.390Z,6.45
2022-11-22T02:23:34.404Z,6.33
2022-11-22T02:26:03.331Z,6.53
2022-11-22T02:28:36.668Z,6.38
2022-11-22T02:31:04.342Z,6.30
2022-11-22T02:33:31.593Z,7.18
2022-11-22T02:35:59.037Z,7.20
2022-11-22T02:38:31.796Z,7.20
2022-11-22T02:41:06.237Z,6.68
2022-11-22T02:43:37.665Z,8.15
2022-11-22T02:46:12.439Z,6.82
2022-11-22T02:48:43.880Z,6.90
2022-11-22T02:51:16.208Z,7.47
2022-11-22T02:53:44.089Z,6.75
2022-11-22T02:56:11.240Z,7.22
2022-11-22T02:58:38.573Z,7.32
2022-11-22T03:01:05.858Z,6.57
2022-11-22T03:03:33.322Z,6.07
2022-11-22T03:06:01.803Z,5.50
2022-11-22T03:08:29.689Z,6.35
2022-11-22T03:10:58.449Z,6.55
2022-11-22T03:13:25.944Z,7.35
2022-11-22T03:15:53.074Z,6.78
2022-11-22T03:18:20.228Z,6.85
2022-11-22T03:20:47.457Z,8.60
2022-11-22T03:23:14.823Z,9.13
2022-11-22T03:25:42.125Z,8.43
2022-11-22T03:28:09.208Z,8.30
2022-11-22T03:30:40.730Z,8.75
2022-11-22T03:33:08.090Z,7.65
2022-11-22T03:35:35.215Z,8.65
2022-11-22T03:38:02.765Z,8.65
2022-11-22T03:40:30.011Z,7.97
2022-11-22T03:43:01.444Z,7.70
2022-11-22T03:45:30.044Z,8.05
2022-11-22T03:47:57.409Z,7.28
2022-11-22T03:50:25.067Z,5.28
2022-11-22T03:52:52.363Z,5.50
2022-11-22T03:55:19.643Z,5.85
2022-11-22T03:57:46.857Z,7.97
2022-11-22T04:00:14.761Z,6.20
2022-11-22T04:02:43.330Z,5.13
2022-11-22T04:05:10.514Z,5.75
2022-11-22T04:07:37.922Z,6.28
2022-11-22T04:10:05.964Z,7.10
2022-11-22T04:12:33.303Z,6.68
2022-11-22T04:15:06.711Z,7.50
2022-11-22T04:17:43.607Z,7.95
2022-11-22T04:20:40.090Z,7.68
2022-11-22T04:23:19.697Z,6.40
2022-11-22T04:28:19.479Z,6.82
2022-11-22T04:31:05.813Z,7.43
2022-11-22T04:33:33.552Z,8.30
2022-11-22T04:36:00.929Z,7.25
2022-11-22T04:38:28.223Z,9.02
2022-11-22T04:40:55.371Z,9.45
2022-11-22T04:43:47.457Z,8.77
2022-11-22T04:46:15.783Z,8.82
2022-11-22T04:48:43.321Z,17.95
2022-11-22T04:51:33.335Z,11.40
2022-11-22T04:54:00.557Z,11.73
2022-11-22T04:56:27.682Z,10.95
2022-11-22T04:58:54.748Z,12.27
2022-11-22T05:01:21.941Z,11.57
2022-11-22T05:03:49.143Z,11.48
2022-11-22T05:06:16.369Z,8.20
2022-11-22T05:08:43.613Z,9.77
2022-11-22T05:11:11.344Z,8.20
2022-11-22T05:13:41.505Z,9.57
2022-11-22T05:16:12.555Z,8.82
2022-11-22T05:18:40.141Z,8.48
2022-11-22T05:21:11.364Z,8.85
2022-11-22T05:23:53.922Z,8.80
2022-11-22T05:26:21.656Z,9.07
2022-11-22T05:28:49.172Z,10.50
2022-11-22T05:31:22.972Z,11.38
2022-11-22T05:33:53.100Z,10.38
2022-11-22T05:36:21.432Z,12.65
2022-11-22T05:38:49.261Z,11.55
2022-11-22T05:41:17.045Z,17.30
2022-11-22T05:43:44.267Z,18.23
2022-11-22T05:46:24.681Z,15.15
2022-11-22T05:48:55.518Z,12.60
2022-11-22T05:51:34.068Z,13.15
2022-11-22T05:56:30.159Z,10.63
2022-11-22T05:58:57.431Z,12.73
2022-11-22T06:01:25.189Z,15.27
2022-11-22T06:03:53.939Z,14.50
2022-11-22T06:06:21.310Z,15.83
2022-11-22T06:08:48.923Z,12.40
2022-11-22T06:11:22.939Z,14.20
2022-11-22T06:13:56.573Z,15.48
2022-11-22T06:16:26.457Z,14.80
2022-11-22T06:18:54.189Z,17.92
2022-11-22T06:21:24.586Z,14.15
2022-11-22T06:23:54.376Z,11.23
2022-11-22T06:26:23.788Z,14.07
2022-11-22T06:28:51.140Z,17.05
2022-11-22T06:31:24.650Z,15.50
2022-11-22T06:33:54.900Z,17.05
2022-11-22T06:36:26.065Z,9.48
2022-11-22T06:38:53.602Z,9.02
2022-11-22T06:41:27.221Z,6.97
2022-11-22T06:43:58.059Z,7.38
2022-11-22T06:46:26.769Z,6.72
2022-11-22T06:48:53.972Z,7.33
2022-11-22T06:51:29.717Z,6.47
2022-11-22T06:53:58.069Z,6.70
2022-11-22T06:56:27.914Z,5.97
2022-11-22T06:58:55.992Z,4.68
2022-11-22T07:01:27.098Z,6.00
2022-11-22T07:03:57.403Z,6.80
2022-11-22T07:06:28.051Z,6.75
2022-11-22T07:08:56.032Z,5.07
2022-11-22T07:11:27.575Z,6.88
2022-11-22T07:14:00.391Z,8.88
2022-11-22T07:16:30.709Z,5.57
2022-11-22T07:19:02.389Z,7.70
2022-11-22T07:21:29.467Z,6.45
2022-11-22T07:23:56.682Z,6.72
2022-11-22T07:26:25.897Z,6.90
2022-11-22T07:28:52.982Z,5.28
2022-11-22T07:31:20.558Z,6.53
2022-11-22T07:33:48.135Z,7.15
2022-11-22T07:36:21.637Z,9.95
2022-11-22T07:38:49.849Z,12.60
2022-11-22T07:41:18.781Z,14.77
2022-11-22T07:43:46.463Z,12.48
2022-11-22T07:46:25.565Z,10.85
2022-11-22T07:48:52.983Z,8.23
2022-11-22T07:51:20.092Z,7.05
2022-11-22T07:53:47.431Z,6.90
2022-11-22T07:56:14.704Z,6.30
2022-11-22T07:58:42.238Z,6.93
2022-11-22T08:01:13.443Z,7.90
2022-11-22T08:03:41.116Z,6.00
2022-11-22T08:06:11.265Z,6.35
2022-11-22T08:08:38.888Z,7.30
2022-11-22T08:11:07.370Z,6.72
2022-11-22T08:13:35.555Z,5.93
2022-11-22T08:16:10.515Z,5.80
2022-11-22T08:18:39.109Z,5.43
2022-11-22T08:21:09.834Z,6.70
2022-11-22T08:23:37.719Z,5.03
2022-11-22T08:26:07.280Z,7.53
2022-11-22T08:31:19.099Z,6.47
2022-11-22T08:33:47.472Z,7.43
2022-11-22T08:36:14.893Z,5.75
2022-11-22T08:38:42.065Z,5.80
2022-11-22T08:41:09.827Z,7.70
2022-11-22T08:43:37.059Z,6.05
2022-11-22T08:46:04.999Z,4.15
2022-11-22T08:48:35.256Z,3.58
2022-11-22T08:51:06.248Z,3.60
2022-11-22T08:53:39.182Z,5.10
2022-11-22T08:56:09.212Z,3.42
2022-11-22T08:58:36.853Z,3.42
2022-11-22T09:01:10.787Z,3.13
2022-11-22T09:03:39.361Z,2.78
2022-11-22T09:09:15.615Z,3.53
2022-11-22T09:11:44.722Z,3.90
2022-11-22T09:14:11.867Z,3.10
2022-11-22T09:16:39.022Z,2.90
2022-11-22T09:19:06.173Z,4.38
2022-11-22T09:21:33.376Z,3.10
2022-11-22T09:24:00.554Z,3.58
2022-11-22T09:26:28.773Z,4.63
2022-11-22T09:28:56.517Z,5.10
2022-11-22T09:31:24.126Z,5.10
2022-11-22T09:33:51.492Z,4.90
2022-11-22T09:36:22.265Z,4.00
2022-11-22T09:38:51.061Z,4.85
2022-11-22T09:41:48.661Z,4.68
2022-11-22T09:44:40.448Z,4.53
2022-11-22T09:47:45.772Z,7.88
2022-11-22T09:50:34.536Z,4.47
2022-11-22T09:53:13.506Z,5.78
2022-11-22T09:55:44.357Z,5.90
2022-11-22T09:58:51.215Z,5.07
2022-11-22T10:01:33.811Z,5.43
2022-11-22T10:04:09.861Z,5.15
2022-11-22T10:06:50.006Z,3.95
2022-11-22T10:09:50.279Z,2.88
2022-11-22T10:12:35.162Z,3.47
2022-11-22T10:15:18.736Z,2.95
2022-11-22T10:18:01.303Z,3.22
2022-11-22T10:20:32.090Z,3.30
2022-11-22T10:22:59.433Z,3.20
2022-11-22T10:25:45.206Z,3.40
2022-11-22T10:28:36.575Z,1.73
2022-11-22T10:31:14.121Z,1.67
2022-11-22T10:34:00.072Z,1.50
2022-11-22T10:37:14.899Z,1.90
2022-11-22T10:40:11.134Z,1.55
2022-11-22T10:43:36.796Z,1.00
2022-11-22T10:46:42.386Z,1.70
2022-11-22T10:49:49.338Z,2.38
2022-11-22T10:53:01.150Z,2.10
2022-11-22T10:55:54.760Z,1.63
2022-11-22T10:58:57.877Z,1.90
2022-11-22T11:01:49.606Z,1.40
2022-11-22T11:04:18.232Z,0.98
2022-11-22T11:07:11.477Z,1.52
2022-11-22T11:10:10.845Z,0.80
2022-11-22T11:12:57.998Z,1.10
2022-11-22T11:15:55.776Z,1.35
2022-11-22T11:19:02.786Z,1.47
2022-11-22T11:21:29.912Z,2.85
2022-11-22T11:23:57.193Z,3.13
2022-11-22T11:26:31.727Z,2.10
2022-11-22T11:29:38.294Z,1.77
2022-11-22T11:32:15.572Z,1.92
2022-11-22T11:35:01.076Z,1.67
2022-11-22T11:37:38.635Z,2.15
2022-11-22T11:40:31.478Z,1.63
2022-11-22T11:43:19.380Z,0.90
2022-11-22T11:45:47.299Z,0.88
2022-11-22T11:48:37.003Z,1.35
2022-11-22T11:51:25.330Z,1.00
2022-11-22T11:54:18.092Z,1.63
2022-11-22T11:57:04.781Z,1.15
2022-11-22T11:59:52.163Z,1.60
2022-11-22T12:02:40.835Z,1.45
2022-11-22T12:05:13.813Z,1.55
2022-11-22T12:07:44.450Z,0.95
2022-11-22T12:10:46.875Z,1.83
2022-11-22T12:13:24.076Z,1.42
2022-11-22T12:16:10.208Z,1.58
2022-11-22T12:19:00.513Z,1.55
2022-11-22T12:21:50.144Z,1.17
2022-11-22T12:25:09.752Z,0.90
2022-11-22T12:27:35.477Z,1.00
2022-11-22T12:30:05.790Z,1.33
2022-11-22T12:32:40.825Z,0.90
2022-11-22T12:35:22.280Z,1.52
2022-11-22T12:38:10.590Z,1.10
2022-11-22T12:40:51.748Z,2.13
2022-11-22T12:43:43.154Z,1.70
2022-11-22T12:46:43.690Z,3.17
2022-11-22T12:49:29.539Z,2.17
2022-11-22T12:52:15.308Z,3.78
2022-11-22T12:55:58.240Z,2.28
2022-11-22T12:59:01.683Z,1.48
2022-11-22T13:01:41.985Z,1.02
2022-11-22T13:04:08.984Z,1.20
2022-11-22T13:06:56.385Z,1.25
2022-11-22T13:09:37.448Z,1.63
2022-11-22T13:12:17.418Z,1.33
2022-11-22T13:14:54.371Z,1.60
2022-11-22T13:17:29.632Z,1.25
2022-11-22T13:20:20.894Z,1.17
2022-11-22T13:22:59.403Z,1.30
2022-11-22T13:26:16.674Z,1.10
2022-11-22T13:28:44.799Z,1.58
2022-11-22T13:31:11.863Z,1.38
2022-11-22T13:33:51.258Z,1.25
2022-11-22T13:36:31.808Z,1.58
2022-11-22T13:39:02.606Z,1.58
2022-11-22T13:41:47.376Z,1.00
2022-11-22T13:44:50.274Z,1.55
2022-11-22T13:47:23.105Z,1.98
2022-11-22T13:49:53.305Z,1.95
2022-11-22T13:52:20.332Z,2.33
2022-11-22T13:54:47.439Z,2.20
2022-11-22T13:57:36.601Z,2.20
2022-11-22T14:00:15.476Z,2.60
2022-11-22T14:02:50.500Z,2.22
2022-11-22T14:05:29.471Z,2.20
2022-11-22T14:07:57.205Z,2.67
2022-11-22T14:10:28.516Z,2.35
2022-11-22T14:13:11.730Z,1.92
2022-11-22T14:16:17.880Z,2.17
2022-11-22T14:18:58.554Z,2.50
2022-11-22T14:22:18.480Z,1.92
2022-11-22T14:25:32.347Z,1.95
2022-11-22T14:28:49.029Z,2.33
2022-11-22T14:31:28.776Z,3.17
2022-11-22T14:34:20.860Z,2.13
2022-11-22T14:37:09.879Z,1.95
2022-11-22T14:39:52.874Z,2.90
2022-11-22T14:42:42.966Z,3.10
2022-11-22T14:45:43.980Z,2.15
2022-11-22T14:48:19.849Z,1.90
2022-11-22T14:51:01.201Z,2.83
2022-11-22T14:53:51.443Z,2.20
2022-11-22T14:56:31.263Z,2.60
2022-11-22T14:59:32.815Z,1.45
2022-11-22T15:02:30.941Z,1.65
2022-11-22T15:09:12.133Z,1.90
2022-11-22T15:09:12.943Z,2.40
2022-11-22T15:11:26.679Z,2.85
2022-11-22T15:14:21.572Z,2.25
2022-11-22T15:57:37.648Z,3.90
2022-11-22T16:00:24.489Z,3.67
2022-11-22T16:03:01.003Z,2.95
2022-11-22T16:06:09.146Z,3.47
2022-11-22T16:08:27.840Z,4.53
2022-11-22T16:10:59.957Z,2.50
2022-11-22T16:13:32.633Z,3.20
2022-11-22T16:16:10.315Z,2.75
2022-11-22T16:18:42.670Z,5.15
2022-11-22T16:21:10.624Z,4.63
2022-11-22T16:23:39.684Z,4.53
2022-11-22T16:26:25.209Z,3.97
2022-11-22T16:28:54.095Z,3.75
2022-11-22T16:31:31.587Z,2.88
2022-11-22T16:33:59.184Z,2.80
2022-11-22T16:36:29.630Z,5.65
2022-11-22T16:38:57.292Z,7.40
2022-11-22T16:41:29.279Z,4.75
2022-11-22T16:44:05.821Z,4.75
2022-11-22T16:46:32.920Z,5.05
2022-11-22T16:49:00.228Z,4.40
2022-11-22T16:51:29.461Z,3.35
2022-11-22T16:54:05.032Z,3.03
2022-11-22T16:56:32.833Z,3.88
2022-11-22T16:59:00.051Z,3.20
2022-11-22T17:01:32.366Z,5.80
2022-11-22T17:04:02.380Z,5.80
2022-11-22T17:06:30.945Z,2.30
2022-11-22T17:08:59.870Z,5.07
2022-11-22T17:11:30.594Z,3.13
2022-11-22T17:13:59.598Z,4.20
2022-11-22T17:16:26.827Z,5.32
2022-11-22T17:18:54.057Z,4.07
2022-11-22T17:21:37.050Z,3.85
2022-11-22T17:24:25.146Z,4.07
2022-11-22T17:26:52.516Z,3.30
2022-11-22T17:29:48.841Z,3.78
2022-11-22T17:32:11.775Z,7.30
2022-11-22T17:34:38.980Z,4.22
2022-11-22T17:37:12.243Z,3.67
2022-11-22T17:39:40.190Z,3.80
2022-11-22T17:42:07.700Z,3.80
2022-11-22T17:44:34.855Z,3.70
2022-11-22T17:47:02.173Z,5.78
2022-11-22T17:49:29.703Z,5.93
2022-11-22T17:51:57.079Z,4.90
2022-11-22T17:54:24.335Z,3.80
2022-11-22T17:56:51.541Z,3.80
2022-11-22T17:59:18.737Z,3.25
2022-11-22T18:01:45.870Z,3.22
2022-11-22T18:04:14.035Z,3.60
2022-11-22T18:06:41.352Z,9.77
2022-11-22T18:09:08.613Z,4.43
2022-11-22T18:11:35.801Z,3.45
2022-11-22T18:14:03.014Z,7.30
2022-11-22T18:16:30.624Z,5.00
2022-11-22T18:18:58.803Z,5.30
2022-11-22T18:21:33.796Z,3.60
2022-11-22T18:24:01.522Z,2.25
2022-11-22T18:26:39.519Z,3.33
2022-11-22T18:29:38.927Z,3.92
2022-11-22T18:31:56.078Z,8.65
2022-11-22T18:34:23.606Z,6.35
2022-11-22T18:37:06.772Z,7.45
2022-11-22T18:39:38.347Z,3.00
2022-11-22T18:42:14.133Z,4.28
2022-11-22T18:44:41.815Z,6.68
2022-11-22T18:47:09.364Z,5.20
2022-11-22T18:49:37.028Z,3.50
2022-11-22T18:52:05.116Z,2.47
2022-11-22T18:54:33.081Z,2.85
2022-11-22T18:57:00.644Z,3.50
2022-11-22T18:59:28.042Z,3.97
2022-11-22T19:01:55.295Z,2.45
2022-11-22T19:04:22.718Z,3.05
2022-11-22T19:06:50.817Z,1.67
2022-11-22T19:09:18.207Z,2.20
2022-11-22T19:11:45.346Z,1.60
2022-11-22T19:14:12.622Z,2.85
2022-11-22T19:16:40.055Z,2.90
2022-11-22T19:19:11.328Z,3.17
2022-11-22T19:21:39.000Z,2.38
2022-11-22T19:24:06.634Z,2.28
2022-11-22T19:26:34.345Z,3.33
2022-11-22T19:29:02.177Z,4.82
2022-11-22T19:31:30.796Z,3.35
2022-11-22T19:34:01.786Z,2.37
2022-11-22T19:36:34.033Z,2.20
2022-11-22T19:39:09.737Z,2.05
2022-11-22T19:41:39.583Z,3.28
2022-11-22T19:44:07.163Z,5.90
2022-11-22T19:46:35.824Z,3.63
2022-11-22T19:49:03.229Z,1.98
2022-11-22T19:51:31.259Z,3.05
2022-11-22T19:54:03.956Z,2.70
2022-11-22T19:56:35.909Z,1.90
2022-11-22T19:59:09.732Z,3.15
2022-11-22T20:01:39.125Z,1.98
2022-11-22T20:04:07.183Z,2.83
2022-11-22T20:06:35.827Z,2.00
2022-11-22T20:09:11.530Z,1.90
2022-11-22T20:11:41.186Z,2.90
2022-11-22T20:14:09.938Z,2.65
2022-11-22T20:16:40.675Z,2.03
2022-11-22T20:19:10.046Z,2.95
2022-11-22T20:21:38.241Z,1.98
2022-11-22T20:24:06.467Z,1.40
2022-11-22T20:26:34.556Z,2.08
2022-11-22T20:29:11.378Z,2.30
2022-11-22T20:31:39.806Z,1.58
2022-11-22T20:34:07.483Z,2.30
2022-11-22T20:36:35.402Z,2.22
2022-11-22T20:39:09.689Z,2.50
2022-11-22T20:41:39.841Z,1.88
2022-11-22T20:44:12.576Z,1.55
2022-11-22T20:46:40.487Z,2.67
2022-11-22T20:49:07.881Z,1.40
2022-11-22T20:51:35.613Z,1.90
2022-11-22T20:54:02.921Z,2.00
2022-11-22T20:56:30.469Z,1.52
2022-11-22T20:58:57.856Z,1.25
2022-11-22T21:01:28.915Z,1.40
2022-11-22T21:03:56.680Z,1.63
2022-11-22T21:06:27.069Z,2.13
2022-11-22T21:08:55.014Z,1.60
2022-11-22T21:11:29.009Z,1.73
2022-11-22T21:13:57.903Z,1.42
2022-11-22T21:16:28.195Z,2.85
2022-11-22T21:18:58.879Z,2.17
2022-11-22T21:21:26.694Z,3.50
2022-11-22T21:23:56.645Z,2.50
2022-11-22T21:26:25.525Z,3.40
2022-11-22T21:28:53.301Z,3.47
2022-11-22T21:31:21.933Z,2.35
2022-11-22T21:33:50.472Z,3.90
2022-11-22T21:36:18.942Z,2.53
2022-11-22T21:38:46.222Z,1.98
2022-11-22T21:44:07.771Z,1.10
2022-11-22T21:46:34.902Z,1.02
2022-11-22T21:49:02.132Z,0.88
2022-11-22T21:51:29.479Z,1.13
2022-11-22T21:54:01.335Z,0.70
2022-11-22T21:56:29.047Z,1.08
2022-11-22T21:58:56.597Z,0.55
2022-11-22T22:01:24.732Z,1.55
2022-11-22T22:03:52.147Z,0.52
2022-11-22T22:06:19.985Z,0.73
2022-11-22T22:08:47.311Z,0.40
2022-11-22T22:11:14.974Z,1.00
2022-11-22T22:13:42.143Z,1.42
2022-11-22T22:16:12.260Z,1.35
2022-11-22T22:18:39.453Z,0.93
2022-11-22T22:21:09.247Z,0.90
2022-11-22T22:23:38.872Z,0.73
2022-11-22T22:26:09.881Z,1.05
2022-11-22T22:28:38.727Z,0.57
2022-11-22T22:31:10.973Z,0.88
2022-11-22T22:33:40.988Z,0.80
2022-11-22T22:36:09.757Z,0.65
2022-11-22T22:38:37.836Z,0.98
2022-11-22T22:41:06.498Z,0.95
2022-11-22T22:43:37.008Z,1.35
2022-11-22T22:46:10.792Z,1.50
2022-11-22T22:48:38.426Z,2.60
2022-11-22T22:51:26.231Z,1.73
2022-11-22T22:53:58.081Z,2.20
2022-11-22T22:56:27.883Z,2.30
2022-11-22T22:58:56.244Z,0.75
2022-11-22T23:01:28.359Z,1.33
2022-11-22T23:04:01.144Z,0.80
2022-11-22T23:06:32.037Z,1.00
2022-11-22T23:09:00.135Z,0.73
2022-11-22T23:11:48.808Z,0.93
2022-11-22T23:14:20.446Z,0.75
2022-11-22T23:16:47.832Z,0.82
2022-11-22T23:19:15.196Z,0.63
2022-11-22T23:21:42.392Z,0.90
2022-11-22T23:24:10.024Z,1.92
2022-11-22T23:26:37.414Z,1.83
2022-11-22T23:29:05.047Z,1.58
2022-11-22T23:31:32.855Z,0.60
2022-11-22T23:34:01.096Z,1.98
2022-11-22T23:36:28.775Z,1.65
2022-11-22T23:38:55.942Z,1.10
2022-11-22T23:41:25.092Z,1.25
2022-11-22T23:43:56.637Z,1.10
2022-11-22T23:46:27.189Z,1.40
2022-11-22T23:49:00.062Z,0.73
2022-11-22T23:51:29.455Z,1.20
2022-11-22T23:53:59.406Z,1.70
2022-11-22T23:56:27.880Z,1.88
2022-11-22T23:58:55.199Z,1.30
